Flag Island, Minnesota
Current Conditions -  °F | °C
As of 4:54 AM on Monday 20 Oct 2014 (Local Time) from KFGN Reporting Station
Broken Clouds Broken Clouds  
Wind Chill: 35°   Ceiling: 2900
Heat Index: 43°   Visibility: 10mi
Dew Point: 39°   Wind: 15mph
Humidity: 87%   Direction: 310°NW
Pressure: 29.95"   Gusts: NA
Location:  49.32°N, 94.9°W
Report Text: KFGN 200954Z AUTO 31013KT 10SM BKN029 06/04 A2995 RMK AO2
Loading
Personal Weather Stations






























Interactive Weather Map
Tropical Storm Tracking
New forecast layout! Learn more

10-Day Weather Forecast

Advertisements
Track Severe Weather on mobile